Sydney, North Dakota
Current Conditions -  °F | °C
As of 3:56 AM on Sunday 25 Jan 2015 (Local Time) from KJMS Reporting Station
Overcast Overcast  
Wind Chill: 12°   Ceiling: 2100
Heat Index: 21°   Visibility: 10mi
Dew Point: 18°   Wind: 7mph
Humidity: 88%   Direction: 360°N
Pressure: 29.92"   Gusts: NA
Location:  46.8494°N, 98.7424°W
Report Text: KJMS 250956Z AUTO 36006KT 10SM BKN021 OVC027 M06/M08 A2992 RMK AO2 SLP153 T10611078
Loading
Personal Weather Stations






























Interactive Weather Map New forecast layout! Learn more

10-Day Weather Forecast

Advertisements
Track Severe Weather on mobile